createdAt,value
2019-04-22T00:00:42.472Z,7.80
2019-04-22T00:03:15.228Z,7.80
2019-04-22T00:06:06.970Z,7.80
2019-04-22T00:08:47.174Z,7.80
2019-04-22T00:11:18.171Z,7.80
2019-04-22T00:16:27.431Z,7.80
2019-04-22T00:19:11.485Z,7.80
2019-04-22T00:21:34.923Z,7.80
2019-04-22T00:24:07.414Z,7.70
2019-04-22T00:29:38.952Z,7.70
2019-04-22T00:32:09.179Z,7.70
2019-04-22T00:34:46.922Z,7.70
2019-04-22T00:37:22.831Z,7.70
2019-04-22T00:39:52.068Z,7.70
2019-04-22T00:42:27.474Z,7.70
2019-04-22T00:45:04.973Z,7.70
2019-04-22T00:47:36.697Z,7.70
2019-04-22T00:50:26.796Z,7.70
2019-04-22T00:52:52.551Z,7.70
2019-04-22T00:55:22.002Z,7.70
2019-04-22T00:57:55.915Z,7.70
2019-04-22T01:00:31.385Z,7.70
2019-04-22T01:03:16.125Z,7.70
2019-04-22T01:05:40.439Z,7.70
2019-04-22T01:08:17.254Z,7.70
2019-04-22T01:10:46.824Z,7.70
2019-04-22T01:13:19.505Z,7.70
2019-04-22T01:15:57.777Z,7.70
2019-04-22T01:18:32.770Z,7.80
2019-04-22T01:21:17.755Z,7.80
2019-04-22T01:23:34.581Z,7.80
2019-04-22T01:26:09.835Z,7.80
2019-04-22T01:28:44.835Z,7.70
2019-04-22T01:31:11.706Z,7.70
2019-04-22T01:33:47.712Z,7.80
2019-04-22T01:36:38.445Z,7.80
2019-04-22T01:39:16.781Z,7.80
2019-04-22T01:42:06.102Z,7.80
2019-04-22T01:47:08.174Z,7.80
2019-04-22T01:49:44.133Z,7.80
2019-04-22T01:52:14.299Z,7.80
2019-04-22T01:54:48.547Z,7.90
2019-04-22T01:57:20.915Z,7.90
2019-04-22T01:59:49.780Z,7.90
2019-04-22T02:05:12.246Z,7.90
2019-04-22T02:07:41.898Z,7.90
2019-04-22T02:10:20.097Z,7.90
2019-04-22T02:13:01.481Z,7.90
2019-04-22T02:15:31.770Z,7.90
2019-04-22T02:18:11.998Z,7.90
2019-04-22T02:20:42.935Z,7.90
2019-04-22T02:23:43.889Z,7.80
2019-04-22T02:26:13.022Z,7.90
2019-04-22T02:28:40.127Z,7.90
2019-04-22T02:41:43.936Z,8.00
2019-04-22T02:44:26.491Z,8.00
2019-04-22T02:47:11.841Z,8.00
2019-04-22T02:49:29.169Z,8.00
2019-04-22T02:52:18.119Z,8.00
2019-04-22T02:54:55.021Z,8.00
2019-04-22T02:57:30.098Z,8.00
2019-04-22T02:59:57.393Z,8.00
2019-04-22T03:02:49.074Z,8.00
2019-04-22T03:05:11.030Z,8.00
2019-04-22T03:07:41.117Z,8.00
2019-04-22T03:10:37.439Z,8.00
2019-04-22T03:12:48.981Z,8.00
2019-04-22T03:15:20.235Z,8.00
2019-04-22T03:18:01.177Z,8.00
2019-04-22T03:20:33.568Z,8.10
2019-04-22T03:28:33.236Z,8.10
2019-04-22T03:40:37.271Z,8.10
2019-04-22T03:46:02.087Z,8.20
2019-04-22T03:48:15.932Z,8.20
2019-04-22T03:50:55.098Z,8.20
2019-04-22T03:53:32.981Z,8.20
2019-04-22T03:56:19.082Z,8.30
2019-04-22T03:58:48.238Z,8.30
2019-04-22T04:01:31.922Z,8.30
2019-04-22T04:04:03.267Z,8.30
2019-04-22T04:06:39.908Z,8.40
2019-04-22T04:09:09.383Z,8.40
2019-04-22T04:11:53.851Z,8.50
2019-04-22T04:14:21.866Z,8.50
2019-04-22T04:17:02.380Z,8.50
2019-04-22T04:21:58.720Z,8.50
2019-04-22T04:24:57.940Z,8.50
2019-04-22T04:32:38.643Z,8.70
2019-04-22T04:42:54.370Z,8.80
2019-04-22T04:45:40.840Z,8.80
2019-04-22T04:53:06.384Z,8.90
2019-04-22T05:00:51.494Z,8.90
2019-04-22T05:03:21.705Z,9.00
2019-04-22T05:05:57.098Z,9.00
2019-04-22T05:08:40.776Z,9.10
2019-04-22T05:13:49.369Z,9.10
2019-04-22T05:19:05.519Z,9.20
2019-04-22T05:21:22.378Z,9.20
2019-04-22T05:24:02.668Z,9.30
2019-04-22T05:26:34.210Z,9.40
2019-04-22T05:29:08.569Z,9.40
2019-04-22T05:31:48.008Z,9.50
2019-04-22T05:34:16.280Z,9.50
2019-04-22T05:36:49.434Z,9.50
2019-04-22T05:39:17.309Z,9.60
2019-04-22T05:41:54.780Z,9.60
2019-04-22T05:44:30.912Z,9.60
2019-04-22T05:47:04.384Z,9.70
2019-04-22T05:49:36.951Z,9.80
2019-04-22T05:52:14.935Z,9.90
2019-04-22T05:54:48.691Z,9.90
2019-04-22T06:00:01.194Z,10.00
2019-04-22T06:02:39.804Z,10.10
2019-04-22T06:05:31.910Z,10.10
2019-04-22T06:08:17.129Z,10.10
2019-04-22T06:10:55.769Z,10.20
2019-04-22T06:13:18.066Z,10.20
2019-04-22T06:15:58.714Z,10.30
2019-04-22T06:21:14.743Z,10.40
2019-04-22T06:23:46.908Z,10.50
2019-04-22T06:28:56.854Z,10.50
2019-04-22T06:31:37.169Z,10.60
2019-04-22T06:34:10.619Z,10.70
2019-04-22T06:36:46.329Z,10.80
2019-04-22T06:39:23.929Z,10.90
2019-04-22T06:41:50.590Z,10.90
2019-04-22T06:44:26.506Z,10.90
2019-04-22T06:47:00.637Z,10.90
2019-04-22T06:49:35.403Z,11.00
2019-04-22T06:52:17.051Z,11.20
2019-04-22T06:54:50.518Z,11.20
2019-04-22T06:57:21.582Z,11.20
2019-04-22T06:59:58.765Z,11.30
2019-04-22T07:05:07.843Z,11.50
2019-04-22T07:07:38.666Z,11.60
2019-04-22T07:10:23.801Z,11.70
2019-04-22T07:12:44.904Z,11.80
2019-04-22T07:15:36.988Z,12.00
2019-04-22T07:17:58.250Z,12.10
2019-04-22T07:20:25.551Z,12.20
2019-04-22T07:23:01.937Z,12.30
2019-04-22T07:25:34.978Z,12.40
2019-04-22T07:28:08.372Z,12.50
2019-04-22T07:30:44.738Z,12.60
2019-04-22T07:33:38.104Z,12.70
2019-04-22T07:36:08.567Z,12.80
2019-04-22T07:38:26.393Z,12.60
2019-04-22T07:40:59.248Z,12.50
2019-04-22T07:43:59.880Z,12.50
2019-04-22T07:46:13.539Z,12.50
2019-04-22T07:48:51.850Z,12.60
2019-04-22T07:51:23.587Z,12.60
2019-04-22T07:53:56.081Z,12.70
2019-04-22T07:56:30.159Z,12.70
2019-04-22T07:59:09.264Z,12.70
2019-04-22T08:01:42.834Z,12.80
2019-04-22T08:04:23.120Z,13.00
2019-04-22T08:06:52.686Z,13.10
2019-04-22T08:09:27.711Z,13.10
2019-04-22T08:14:36.246Z,13.10
2019-04-22T08:17:31.074Z,13.20
2019-04-22T08:19:48.490Z,13.30
2019-04-22T08:22:23.908Z,13.40
2019-04-22T08:27:31.470Z,13.60
2019-04-22T08:32:42.834Z,13.50
2019-04-22T08:35:27.844Z,13.50
2019-04-22T08:38:06.636Z,13.60
2019-04-22T08:40:28.824Z,13.70
2019-04-22T08:43:20.690Z,13.90
2019-04-22T08:46:01.009Z,13.90
2019-04-22T08:48:51.609Z,13.90
2019-04-22T08:51:21.159Z,14.10
2019-04-22T08:54:00.124Z,14.30
2019-04-22T08:59:10.961Z,14.20
2019-04-22T09:01:39.249Z,14.20
2019-04-22T09:04:11.642Z,14.30
2019-04-22T09:07:10.455Z,14.40
2019-04-22T09:09:34.339Z,14.50
2019-04-22T09:12:07.647Z,14.60
2019-04-22T09:15:08.163Z,14.50
2019-04-22T09:17:20.962Z,14.60
2019-04-22T09:19:58.327Z,14.60
2019-04-22T09:22:27.682Z,14.50
2019-04-22T09:24:58.591Z,14.40
2019-04-22T09:27:41.268Z,14.20
2019-04-22T09:30:16.850Z,14.20
2019-04-22T09:32:59.161Z,14.10
2019-04-22T09:35:24.859Z,14.10
2019-04-22T09:38:16.934Z,14.00
2019-04-22T09:40:41.881Z,14.00
2019-04-22T09:43:10.022Z,14.00
2019-04-22T09:45:43.381Z,14.00
2019-04-22T09:48:18.107Z,14.00
2019-04-22T09:50:47.974Z,14.00
2019-04-22T09:53:23.854Z,14.00
2019-04-22T09:55:57.228Z,14.10
2019-04-22T09:58:31.888Z,14.10
2019-04-22T10:03:56.453Z,14.20
2019-04-22T10:06:29.071Z,14.30
2019-04-22T10:09:25.949Z,14.40
2019-04-22T10:14:13.588Z,14.60
2019-04-22T10:19:23.470Z,14.80
2019-04-22T10:22:25.348Z,14.90
2019-04-22T10:24:35.184Z,14.90
2019-04-22T10:27:19.023Z,14.90
2019-04-22T10:29:54.171Z,14.90
2019-04-22T10:32:27.927Z,15.00
2019-04-22T10:34:47.935Z,15.10
2019-04-22T10:37:18.937Z,15.10
2019-04-22T10:39:56.257Z,15.10
2019-04-22T10:42:25.415Z,15.00
2019-04-22T10:44:59.319Z,15.10
2019-04-22T10:47:34.437Z,15.10
2019-04-22T10:50:10.378Z,15.20
2019-04-22T10:52:43.548Z,15.10
2019-04-22T10:55:15.000Z,15.10
2019-04-22T10:57:48.654Z,15.10
2019-04-22T11:00:21.829Z,15.20
2019-04-22T11:02:53.879Z,15.20
2019-04-22T11:05:26.147Z,15.20
2019-04-22T11:08:02.778Z,15.30
2019-04-22T11:10:44.506Z,15.30
2019-04-22T11:13:04.962Z,15.40
2019-04-22T11:15:37.066Z,15.40
2019-04-22T11:18:11.488Z,15.40
2019-04-22T11:20:44.833Z,15.40
2019-04-22T11:23:20.803Z,15.40
2019-04-22T11:25:54.083Z,15.40
2019-04-22T11:28:25.515Z,15.40
2019-04-22T11:30:56.395Z,15.40
2019-04-22T11:33:30.350Z,15.40
2019-04-22T11:36:05.961Z,15.30
2019-04-22T11:38:37.767Z,15.40
2019-04-22T11:41:09.245Z,15.40
2019-04-22T11:43:43.071Z,15.40
2019-04-22T11:46:17.571Z,15.40
2019-04-22T11:48:51.898Z,15.40
2019-04-22T11:51:25.228Z,15.50
2019-04-22T11:53:58.775Z,15.60
2019-04-22T11:56:31.253Z,15.60
2019-04-22T11:59:04.838Z,15.50
2019-04-22T12:01:38.760Z,15.50
2019-04-22T12:04:11.905Z,15.50
2019-04-22T12:06:44.154Z,15.50
2019-04-22T12:09:19.623Z,15.60
2019-04-22T12:11:58.118Z,15.60
2019-04-22T12:14:31.835Z,15.60
2019-04-22T12:17:01.736Z,15.60
2019-04-22T12:19:35.242Z,15.70
2019-04-22T12:22:10.985Z,15.70
2019-04-22T12:24:43.975Z,15.70
2019-04-22T12:27:18.593Z,15.70
2019-04-22T12:29:51.183Z,15.80
2019-04-22T12:32:25.378Z,15.90
2019-04-22T12:34:59.636Z,15.90
2019-04-22T12:37:40.636Z,15.90
2019-04-22T12:40:08.651Z,16.00
2019-04-22T12:42:42.308Z,16.10
2019-04-22T12:45:18.279Z,16.10
2019-04-22T12:47:53.948Z,16.10
2019-04-22T12:50:33.175Z,16.10
2019-04-22T12:53:10.419Z,16.10
2019-04-22T12:55:39.659Z,16.20
2019-04-22T12:58:11.833Z,16.10
2019-04-22T13:00:44.848Z,16.10
2019-04-22T13:03:18.370Z,16.10
2019-04-22T13:05:49.486Z,16.10
2019-04-22T13:08:19.980Z,16.10
2019-04-22T13:10:59.274Z,16.10
2019-04-22T13:13:27.056Z,16.10
2019-04-22T13:16:04.612Z,16.10
2019-04-22T13:18:43.391Z,16.10
2019-04-22T13:21:14.970Z,16.10
2019-04-22T13:23:48.917Z,16.10
2019-04-22T13:26:21.293Z,16.10
2019-04-22T13:28:53.038Z,16.20
2019-04-22T13:31:26.858Z,16.20
2019-04-22T13:34:01.695Z,16.10
2019-04-22T13:36:34.603Z,16.10
2019-04-22T13:39:11.320Z,16.10
2019-04-22T13:41:52.180Z,16.00
2019-04-22T13:44:23.052Z,16.00
2019-04-22T13:47:15.770Z,16.00
2019-04-22T13:50:08.099Z,15.90
2019-04-22T13:55:08.165Z,15.80
2019-04-22T13:57:34.429Z,15.80
2019-04-22T13:59:54.176Z,15.80
2019-04-22T14:02:50.924Z,15.80
2019-04-22T14:05:24.553Z,15.90
2019-04-22T14:08:02.559Z,15.90
2019-04-22T14:10:34.515Z,15.90
2019-04-22T14:13:09.822Z,15.90
2019-04-22T14:15:44.927Z,16.00
2019-04-22T14:18:21.075Z,16.10
2019-04-22T14:20:54.521Z,16.10
2019-04-22T14:23:28.645Z,16.10
2019-04-22T14:25:59.128Z,16.10
2019-04-22T14:28:31.255Z,16.10
2019-04-22T14:31:04.366Z,16.10
2019-04-22T14:33:38.495Z,16.10
2019-04-22T14:36:13.441Z,16.10
2019-04-22T14:38:48.046Z,16.10
2019-04-22T14:41:43.538Z,16.10
2019-04-22T14:45:07.104Z,16.00
2019-04-22T14:47:02.179Z,16.00
2019-04-22T14:49:34.161Z,16.00
2019-04-22T14:52:13.615Z,16.00
2019-04-22T14:54:34.602Z,15.90
2019-04-22T14:56:58.890Z,15.90
2019-04-22T14:59:33.032Z,15.90
2019-04-22T15:02:05.656Z,15.90
2019-04-22T15:04:39.625Z,15.90
2019-04-22T15:07:13.139Z,15.90
2019-04-22T15:09:46.302Z,15.90
2019-04-22T15:12:30.241Z,15.80
2019-04-22T15:14:53.127Z,15.70
2019-04-22T15:17:51.072Z,15.60
2019-04-22T15:20:37.390Z,15.60
2019-04-22T15:23:08.960Z,15.60
2019-04-22T15:25:41.635Z,15.50
2019-04-22T15:28:15.375Z,15.50
2019-04-22T15:30:48.742Z,15.40
2019-04-22T15:33:25.500Z,15.40
2019-04-22T15:35:55.559Z,15.30
2019-04-22T15:38:30.086Z,15.30
2019-04-22T15:41:02.868Z,15.30
2019-04-22T15:43:37.234Z,15.30
2019-04-22T15:46:07.726Z,15.30
2019-04-22T15:48:37.764Z,15.30
2019-04-22T15:51:08.814Z,15.30
2019-04-22T15:53:41.715Z,15.30
2019-04-22T15:56:14.738Z,15.30
2019-04-22T15:58:47.868Z,15.20
2019-04-22T16:01:29.893Z,15.20
2019-04-22T16:04:05.029Z,15.10
2019-04-22T16:06:38.796Z,15.10
2019-04-22T16:09:15.075Z,15.10
2019-04-22T16:11:49.873Z,15.20
2019-04-22T16:14:31.175Z,15.20
2019-04-22T16:16:58.950Z,15.20
2019-04-22T16:19:34.979Z,15.30
2019-04-22T16:22:13.338Z,16.10
2019-04-22T16:25:13.288Z,17.10
2019-04-22T16:27:48.167Z,18.10
2019-04-22T16:30:21.514Z,18.80
2019-04-22T16:33:05.720Z,19.40
2019-04-22T16:35:38.645Z,19.70
2019-04-22T16:38:08.748Z,20.00
2019-04-22T16:40:41.022Z,19.90
2019-04-22T16:43:13.613Z,19.80
2019-04-22T16:45:45.393Z,20.20
2019-04-22T16:48:20.190Z,20.30
2019-04-22T16:50:56.491Z,20.00
2019-04-22T16:53:31.498Z,20.00
2019-04-22T16:56:04.748Z,19.90
2019-04-22T16:58:38.871Z,19.80
2019-04-22T17:01:30.795Z,19.50
2019-04-22T17:04:16.492Z,19.40
2019-04-22T17:06:49.772Z,19.20
2019-04-22T17:09:19.733Z,18.90
2019-04-22T17:11:54.071Z,19.00
2019-04-22T17:14:34.924Z,19.00
2019-04-22T17:17:00.238Z,19.10
2019-04-22T17:19:35.354Z,18.60
2019-04-22T17:22:08.103Z,17.90
2019-04-22T17:24:43.606Z,16.90
2019-04-22T17:27:18.101Z,15.90
2019-04-22T17:29:52.475Z,15.20
2019-04-22T17:32:28.894Z,14.80
2019-04-22T17:35:04.003Z,14.40
2019-04-22T17:37:41.434Z,14.00
2019-04-22T17:40:37.107Z,13.80
2019-04-22T17:43:15.446Z,13.50
2019-04-22T17:46:03.084Z,13.20
2019-04-22T17:49:12.259Z,13.00
2019-04-22T17:51:47.841Z,12.80
2019-04-22T17:54:17.136Z,12.60
2019-04-22T17:56:52.458Z,12.40
2019-04-22T17:59:29.577Z,12.20
2019-04-22T18:01:54.065Z,12.10
2019-04-22T18:04:12.744Z,12.00
2019-04-22T18:07:19.037Z,11.90
2019-04-22T18:10:19.032Z,11.80
2019-04-22T18:12:27.238Z,11.70
2019-04-22T18:14:59.654Z,11.60
2019-04-22T18:17:32.046Z,11.50
2019-04-22T18:19:58.255Z,11.40
2019-04-22T18:22:31.081Z,11.20
2019-04-22T18:25:04.757Z,11.20
2019-04-22T18:27:53.683Z,11.10
2019-04-22T18:30:20.069Z,11.00
2019-04-22T18:33:05.890Z,10.90
2019-04-22T18:35:35.214Z,10.80
2019-04-22T18:38:27.093Z,10.70
2019-04-22T18:40:49.209Z,10.60
2019-04-22T18:43:28.905Z,10.60
2019-04-22T18:46:05.452Z,10.50
2019-04-22T18:48:36.093Z,10.50
2019-04-22T18:51:25.089Z,10.40
2019-04-22T18:54:14.717Z,10.30
2019-04-22T18:57:05.322Z,10.30
2019-04-22T18:59:27.703Z,10.20
2019-04-22T19:02:04.252Z,10.10
2019-04-22T19:04:40.899Z,10.00
2019-04-22T19:07:32.931Z,9.90
2019-04-22T19:10:10.552Z,9.80
2019-04-22T19:12:47.322Z,9.70
2019-04-22T19:15:18.948Z,9.60
2019-04-22T19:17:55.624Z,9.60
2019-04-22T19:20:34.405Z,9.50
2019-04-22T19:23:04.230Z,9.40
2019-04-22T19:25:29.340Z,9.30
2019-04-22T19:28:19.198Z,9.30
2019-04-22T19:30:50.672Z,9.40
2019-04-22T19:33:26.892Z,9.40
2019-04-22T19:35:49.148Z,9.40
2019-04-22T19:38:16.435Z,9.40
2019-04-22T19:41:16.487Z,9.40
2019-04-22T19:43:38.922Z,9.30
2019-04-22T19:46:17.008Z,9.20
2019-04-22T19:48:49.713Z,9.20
2019-04-22T19:51:30.360Z,9.10
2019-04-22T19:54:01.484Z,9.10
2019-04-22T19:56:29.524Z,9.00
2019-04-22T19:59:22.501Z,9.00
2019-04-22T20:02:09.499Z,8.90
2019-04-22T20:05:06.583Z,8.80
2019-04-22T20:07:41.426Z,8.80
2019-04-22T20:10:20.697Z,8.70
2019-04-22T20:12:53.000Z,8.60
2019-04-22T20:15:26.907Z,8.60
2019-04-22T20:20:49.231Z,8.50
2019-04-22T20:23:24.251Z,8.50
2019-04-22T20:25:58.019Z,8.40
2019-04-22T20:28:37.915Z,8.40
2019-04-22T20:31:11.322Z,8.30
2019-04-22T20:33:51.348Z,8.30
2019-04-22T20:36:38.001Z,8.20
2019-04-22T20:38:58.137Z,8.10
2019-04-22T20:41:26.283Z,8.10
2019-04-22T20:44:16.335Z,8.00
2019-04-22T20:46:40.766Z,8.00
2019-04-22T20:49:23.931Z,7.90
2019-04-22T20:51:58.832Z,7.90
2019-04-22T20:54:25.776Z,7.80
2019-04-22T20:57:00.771Z,7.80
2019-04-22T20:59:42.537Z,7.80
2019-04-22T21:02:15.180Z,7.80
2019-04-22T21:04:44.436Z,7.70
2019-04-22T21:07:26.844Z,7.70
2019-04-22T21:10:01.094Z,7.70
2019-04-22T21:12:31.659Z,7.60
2019-04-22T21:15:22.262Z,7.60
2019-04-22T21:17:50.930Z,7.70
2019-04-22T21:20:33.320Z,7.60
2019-04-22T21:23:02.747Z,7.60
2019-04-22T21:25:31.914Z,7.60
2019-04-22T21:28:18.133Z,7.50
2019-04-22T21:30:50.586Z,7.50
2019-04-22T21:33:19.707Z,7.50
2019-04-22T21:36:14.309Z,7.50
2019-04-22T21:38:37.587Z,7.50
2019-04-22T21:41:09.929Z,7.50
2019-04-22T21:43:48.222Z,7.50
2019-04-22T21:46:19.076Z,7.50
2019-04-22T21:48:52.853Z,7.40
2019-04-22T21:51:31.655Z,7.40
2019-04-22T21:54:04.056Z,7.40
2019-04-22T21:57:05.797Z,7.40
2019-04-22T21:59:23.943Z,7.30
2019-04-22T22:02:12.362Z,7.30
2019-04-22T22:04:33.715Z,7.30
2019-04-22T22:07:03.191Z,7.30
2019-04-22T22:09:54.258Z,7.30
2019-04-22T22:12:26.457Z,7.20
2019-04-22T22:15:05.485Z,7.20
2019-04-22T22:17:31.669Z,7.10
2019-04-22T22:20:07.458Z,7.10
2019-04-22T22:22:53.234Z,7.10
2019-04-22T22:25:26.546Z,7.10
2019-04-22T22:28:17.073Z,7.10
2019-04-22T22:30:47.707Z,7.10
2019-04-22T22:33:26.360Z,7.00
2019-04-22T22:35:58.102Z,7.00
2019-04-22T22:38:27.229Z,7.00
2019-04-22T22:40:43.894Z,7.00
2019-04-22T22:43:26.600Z,7.00
2019-04-22T22:46:09.519Z,6.90
2019-04-22T22:48:51.543Z,7.00
2019-04-22T22:51:36.863Z,7.00
2019-04-22T22:54:03.844Z,6.90
2019-04-22T22:56:47.485Z,6.90
2019-04-22T22:59:19.693Z,6.90
2019-04-22T23:01:52.684Z,6.80
2019-04-22T23:04:31.226Z,6.70
2019-04-22T23:07:09.374Z,6.70
2019-04-22T23:09:36.669Z,6.60
2019-04-22T23:12:22.595Z,6.60
2019-04-22T23:14:52.811Z,6.50
2019-04-22T23:17:07.357Z,6.50
2019-04-22T23:19:39.824Z,6.50
2019-04-22T23:22:17.870Z,6.40
2019-04-22T23:25:01.721Z,6.40
2019-04-22T23:27:46.557Z,6.30
2019-04-22T23:30:32.390Z,6.20
2019-04-22T23:33:11.769Z,6.20
2019-04-22T23:36:06.389Z,6.10
2019-04-22T23:38:47.702Z,6.10
2019-04-22T23:46:41.482Z,6.10
2019-04-22T23:49:19.110Z,6.00
2019-04-22T23:52:10.118Z,6.00
2019-04-22T23:54:43.622Z,6.00
2019-04-22T23:57:08.349Z,6.00
